createdAt,value
2022-09-18T00:01:01.212Z,66.80
2022-09-18T00:04:06.081Z,67.05
2022-09-18T00:07:08.451Z,66.31
2022-09-18T00:10:10.561Z,67.09
2022-09-18T00:13:14.993Z,66.30
2022-09-18T00:16:19.382Z,66.83
2022-09-18T00:19:21.525Z,66.28
2022-09-18T00:22:23.788Z,67.18
2022-09-18T00:25:26.137Z,67.17
2022-09-18T00:28:28.530Z,66.54
2022-09-18T00:31:33.821Z,66.44
2022-09-18T00:34:36.180Z,67.46
2022-09-18T00:37:39.373Z,66.16
2022-09-18T00:40:41.647Z,66.05
2022-09-18T00:43:44.438Z,67.31
2022-09-18T00:46:46.717Z,66.49
2022-09-18T00:49:57.514Z,67.33
2022-09-18T00:53:07.896Z,67.16
2022-09-18T00:56:15.335Z,66.90
2022-09-18T00:59:22.551Z,66.47
2022-09-18T01:02:24.847Z,67.29
2022-09-18T01:05:46.575Z,66.33
2022-09-18T01:08:54.664Z,67.44
2022-09-18T01:12:06.957Z,66.81
2022-09-18T01:15:35.146Z,67.21
2022-09-18T01:18:52.077Z,66.54
2022-09-18T01:22:12.447Z,66.04
2022-09-18T01:25:41.288Z,67.04
2022-09-18T01:29:08.805Z,66.32
2022-09-18T01:32:32.481Z,66.38
2022-09-18T01:35:42.006Z,67.42
2022-09-18T01:38:57.489Z,66.95
2022-09-18T01:42:03.323Z,67.86
2022-09-18T01:45:10.912Z,67.55
2022-09-18T01:48:26.341Z,67.40
2022-09-18T01:51:48.409Z,66.37
2022-09-18T01:54:55.678Z,66.62
2022-09-18T01:58:07.988Z,66.71
2022-09-18T02:01:17.259Z,66.80
2022-09-18T02:04:25.742Z,66.61
2022-09-18T02:07:42.489Z,67.25
2022-09-18T02:11:10.018Z,67.25
2022-09-18T02:14:18.806Z,66.57
2022-09-18T02:18:00.001Z,67.10
2022-09-18T02:21:17.581Z,66.71
2022-09-18T02:24:24.414Z,67.84
2022-09-18T02:27:28.179Z,68.11
2022-09-18T02:30:32.157Z,67.24
2022-09-18T02:33:36.760Z,67.50
2022-09-18T02:37:00.648Z,68.37
2022-09-18T02:40:21.178Z,67.11
2022-09-18T02:43:56.075Z,68.04
2022-09-18T02:47:25.955Z,67.10
2022-09-18T02:50:36.795Z,67.99
2022-09-18T02:53:46.949Z,67.58
2022-09-18T02:56:51.777Z,67.14
2022-09-18T02:59:56.627Z,67.75
2022-09-18T03:02:59.884Z,67.41
2022-09-18T03:06:09.143Z,66.30
2022-09-18T03:09:12.363Z,66.97
2022-09-18T03:12:14.809Z,66.53
2022-09-18T03:15:22.415Z,66.69
2022-09-18T03:18:26.714Z,66.51
2022-09-18T03:21:32.579Z,66.80
2022-09-18T03:24:34.665Z,67.11
2022-09-18T03:27:38.153Z,66.62
2022-09-18T03:30:41.497Z,66.85
2022-09-18T03:33:43.519Z,67.30
2022-09-18T03:36:47.381Z,67.18
2022-09-18T03:39:50.493Z,66.22
2022-09-18T03:42:53.257Z,67.26
2022-09-18T03:45:55.292Z,67.08
2022-09-18T03:48:57.277Z,67.19
2022-09-18T03:52:01.573Z,66.73
2022-09-18T03:55:07.935Z,66.86
2022-09-18T03:58:33.249Z,67.03
2022-09-18T04:01:41.511Z,67.40
2022-09-18T04:05:01.887Z,66.67
2022-09-18T04:08:22.421Z,66.50
2022-09-18T04:11:44.688Z,67.35
2022-09-18T04:14:47.339Z,67.24
2022-09-18T04:17:49.883Z,67.64
2022-09-18T04:20:51.860Z,67.76
2022-09-18T04:23:53.878Z,67.19
2022-09-18T04:26:55.953Z,66.74
2022-09-18T04:30:00.869Z,67.51
2022-09-18T04:33:03.985Z,67.39
2022-09-18T04:36:06.223Z,67.39
2022-09-18T04:39:09.751Z,67.18
2022-09-18T04:42:11.846Z,67.57
2022-09-18T04:45:14.368Z,67.41
2022-09-18T04:48:18.044Z,68.05
2022-09-18T04:51:21.165Z,68.03
2022-09-18T04:54:24.364Z,67.70
2022-09-18T04:57:27.335Z,67.86
2022-09-18T05:00:29.457Z,66.75
2022-09-18T05:03:34.621Z,67.69
2022-09-18T05:06:36.741Z,67.67
2022-09-18T05:09:39.363Z,67.11
2022-09-18T05:12:45.338Z,67.10
2022-09-18T05:15:48.199Z,67.25
2022-09-18T05:18:52.208Z,67.75
2022-09-18T05:21:54.274Z,67.50
2022-09-18T05:24:56.326Z,67.25
2022-09-18T05:28:00.571Z,66.95
2022-09-18T05:31:18.888Z,66.85
2022-09-18T05:34:22.776Z,68.02
2022-09-18T05:37:24.867Z,67.86
2022-09-18T05:40:34.070Z,68.40
2022-09-18T05:43:36.616Z,67.24
2022-09-18T05:46:43.207Z,67.58
2022-09-18T05:49:45.555Z,68.38
2022-09-18T05:52:48.396Z,68.44
2022-09-18T05:55:51.738Z,68.37
2022-09-18T05:58:54.464Z,67.34
2022-09-18T06:01:56.616Z,68.04
2022-09-18T06:05:10.485Z,67.11
2022-09-18T06:08:13.360Z,68.50
2022-09-18T06:11:15.356Z,68.20
2022-09-18T06:14:17.358Z,67.82
2022-09-18T06:17:21.505Z,67.17
2022-09-18T06:20:27.194Z,67.52
2022-09-18T06:23:30.149Z,67.60
2022-09-18T06:26:38.003Z,67.92
2022-09-18T06:29:41.350Z,67.49
2022-09-18T06:32:46.327Z,68.23
2022-09-18T06:35:49.325Z,69.25
2022-09-18T06:38:59.445Z,68.52
2022-09-18T06:42:01.712Z,69.08
2022-09-18T06:45:22.155Z,68.39
2022-09-18T06:48:26.336Z,68.85
2022-09-18T06:51:29.602Z,68.94
2022-09-18T06:54:40.355Z,68.90
2022-09-18T06:57:42.684Z,69.23
2022-09-18T07:00:47.549Z,67.80
2022-09-18T07:03:57.010Z,68.50
2022-09-18T07:07:03.831Z,68.77
2022-09-18T07:10:09.123Z,67.84
2022-09-18T07:13:18.549Z,68.32
2022-09-18T07:16:21.578Z,67.20
2022-09-18T07:19:24.032Z,67.43
2022-09-18T07:22:26.839Z,66.29
2022-09-18T07:25:31.471Z,66.23
2022-09-18T07:28:34.053Z,66.10
2022-09-18T07:31:45.813Z,66.04
2022-09-18T07:34:48.874Z,65.67
2022-09-18T07:37:59.511Z,66.41
2022-09-18T07:41:13.787Z,64.90
2022-09-18T07:44:19.191Z,65.24
2022-09-18T07:47:22.088Z,65.09
2022-09-18T07:50:24.202Z,64.37
2022-09-18T07:53:29.603Z,65.49
2022-09-18T07:56:34.390Z,64.16
2022-09-18T07:59:37.319Z,64.69
2022-09-18T08:02:40.857Z,65.09
2022-09-18T08:05:43.799Z,64.27
2022-09-18T08:08:46.844Z,64.86
2022-09-18T08:11:54.261Z,65.04
2022-09-18T08:15:06.382Z,66.05
2022-09-18T08:18:26.025Z,66.51
2022-09-18T08:21:35.413Z,65.98
2022-09-18T08:24:42.987Z,65.85
2022-09-18T08:27:45.533Z,65.18
2022-09-18T08:30:48.582Z,64.69
2022-09-18T08:33:52.381Z,65.51
2022-09-18T08:36:55.446Z,63.97
2022-09-18T08:40:01.557Z,63.34
2022-09-18T08:43:51.257Z,63.07
2022-09-18T08:46:58.409Z,62.27
2022-09-18T08:50:09.899Z,62.67
2022-09-18T08:53:20.558Z,62.91
2022-09-18T08:56:50.175Z,63.46
2022-09-18T09:00:11.942Z,63.18
2022-09-18T09:03:25.126Z,63.98
2022-09-18T09:06:56.409Z,64.05
2022-09-18T09:10:31.108Z,62.83
2022-09-18T09:13:59.272Z,62.86
2022-09-18T09:17:10.229Z,63.57
2022-09-18T09:20:23.363Z,62.70
2022-09-18T09:24:01.788Z,59.05
2022-09-18T09:27:41.528Z,62.30
2022-09-18T09:30:52.418Z,62.51
2022-09-18T09:34:25.141Z,59.02
2022-09-18T09:37:43.569Z,60.18
2022-09-18T09:40:52.679Z,59.98
2022-09-18T09:44:00.626Z,60.06
2022-09-18T09:47:21.419Z,59.14
2022-09-18T09:50:48.430Z,59.71
2022-09-18T09:53:56.008Z,60.52
2022-09-18T09:57:25.055Z,60.59
2022-09-18T10:00:32.492Z,60.33
2022-09-18T10:04:13.646Z,60.71
2022-09-18T10:07:35.906Z,60.33
2022-09-18T10:10:45.406Z,60.44
2022-09-18T10:13:57.243Z,61.04
2022-09-18T10:17:02.745Z,60.51
2022-09-18T10:20:06.308Z,60.80
2022-09-18T10:23:20.806Z,59.44
2022-09-18T10:26:33.266Z,60.25
2022-09-18T10:29:36.211Z,59.88
2022-09-18T10:32:44.421Z,58.96
2022-09-18T10:36:09.950Z,58.33
2022-09-18T10:39:31.631Z,58.99
2022-09-18T10:42:41.536Z,58.50
2022-09-18T10:45:56.302Z,59.65
2022-09-18T10:49:57.062Z,59.09
2022-09-18T10:53:28.689Z,57.73
2022-09-18T10:56:32.701Z,58.28
2022-09-18T10:59:35.674Z,57.57
2022-09-18T11:03:03.945Z,50.34
2022-09-18T11:06:17.353Z,56.06
2022-09-18T11:09:32.296Z,56.13
2022-09-18T11:12:35.579Z,56.16
2022-09-18T11:15:38.389Z,55.20
2022-09-18T11:18:40.359Z,54.72
2022-09-18T11:21:51.443Z,55.73
2022-09-18T11:25:09.019Z,51.78
2022-09-18T11:28:22.452Z,57.06
2022-09-18T11:31:25.705Z,57.26
2022-09-18T11:34:37.550Z,56.47
2022-09-18T11:37:48.991Z,56.72
2022-09-18T11:40:54.765Z,54.55
2022-09-18T11:44:13.923Z,54.04
2022-09-18T11:47:36.621Z,52.77
2022-09-18T11:50:39.557Z,55.23
2022-09-18T11:53:55.570Z,54.73
2022-09-18T11:57:01.988Z,57.40
2022-09-18T12:00:15.103Z,54.71
2022-09-18T12:03:31.610Z,55.03
2022-09-18T12:06:44.277Z,52.05
2022-09-18T12:09:57.263Z,51.27
2022-09-18T12:13:11.484Z,57.69
2022-09-18T12:16:32.104Z,57.60
2022-09-18T12:19:48.181Z,55.34
2022-09-18T12:23:00.447Z,56.33
2022-09-18T12:26:09.963Z,56.10
2022-09-18T12:29:52.379Z,52.84
2022-09-18T12:33:13.629Z,56.96
2022-09-18T12:36:30.981Z,57.16
2022-09-18T12:40:04.621Z,57.55
2022-09-18T12:43:26.608Z,57.07
2022-09-18T12:46:46.481Z,57.48
2022-09-18T12:50:19.246Z,58.00
2022-09-18T12:53:33.044Z,56.27
2022-09-18T12:56:56.342Z,57.15
2022-09-18T13:00:05.867Z,57.21
2022-09-18T13:03:33.610Z,56.67
2022-09-18T13:06:49.302Z,56.55
2022-09-18T13:10:03.298Z,56.79
2022-09-18T13:13:24.704Z,55.72
2022-09-18T13:16:55.042Z,55.95
2022-09-18T13:20:06.973Z,55.98
2022-09-18T13:23:27.472Z,54.83
2022-09-18T13:26:33.219Z,56.20
2022-09-18T13:29:53.521Z,55.95
2022-09-18T13:32:57.339Z,55.95
2022-09-18T13:35:59.401Z,56.50
2022-09-18T13:39:23.755Z,56.71
2022-09-18T13:42:41.225Z,56.79
2022-09-18T13:45:43.416Z,56.10
2022-09-18T13:48:48.885Z,55.71
2022-09-18T13:51:50.970Z,55.53
2022-09-18T13:55:11.415Z,55.85
2022-09-18T13:58:31.927Z,55.05
2022-09-18T14:01:40.078Z,56.39
2022-09-18T14:04:43.611Z,55.48
2022-09-18T14:07:52.651Z,55.75
2022-09-18T14:11:14.994Z,54.45
2022-09-18T14:14:22.976Z,55.88
2022-09-18T14:17:25.954Z,55.51
2022-09-18T14:20:28.618Z,55.88
2022-09-18T14:23:36.933Z,57.36
2022-09-18T14:26:39.205Z,57.40
2022-09-18T14:29:41.414Z,57.25
2022-09-18T14:33:01.491Z,56.18
2022-09-18T14:36:05.613Z,55.29
2022-09-18T14:39:27.367Z,56.19
2022-09-18T14:42:34.085Z,54.71
2022-09-18T14:45:36.193Z,54.40
2022-09-18T14:48:38.946Z,55.70
2022-09-18T14:52:03.031Z,56.56
2022-09-18T14:55:11.907Z,55.34
2022-09-18T14:58:19.733Z,53.29
2022-09-18T15:01:25.336Z,55.27
2022-09-18T15:04:27.678Z,54.72
2022-09-18T15:07:30.284Z,55.39
2022-09-18T15:10:35.644Z,55.46
2022-09-18T15:13:38.206Z,56.61
2022-09-18T15:16:40.250Z,57.15
2022-09-18T15:20:14.293Z,56.96
2022-09-18T15:23:27.251Z,55.42
2022-09-18T15:26:36.708Z,56.05
2022-09-18T15:29:44.201Z,56.10
2022-09-18T15:33:08.176Z,55.16
2022-09-18T15:36:29.006Z,55.19
2022-09-18T15:39:42.609Z,55.94
2022-09-18T15:42:59.231Z,55.47
2022-09-18T15:46:08.685Z,55.73
2022-09-18T15:49:34.470Z,54.79
2022-09-18T15:52:54.080Z,55.13
2022-09-18T15:56:05.953Z,55.25
2022-09-18T15:59:37.137Z,55.33
2022-09-18T16:02:39.395Z,55.26
2022-09-18T16:05:53.108Z,55.96
2022-09-18T16:08:56.790Z,56.82
2022-09-18T16:11:58.712Z,55.86
2022-09-18T16:15:25.650Z,57.25
2022-09-18T16:18:31.057Z,56.83
2022-09-18T16:21:42.769Z,56.82
2022-09-18T16:24:44.698Z,56.59
2022-09-18T16:27:49.678Z,56.37
2022-09-18T16:30:52.305Z,57.38
2022-09-18T16:34:02.050Z,56.92
2022-09-18T16:37:08.454Z,55.98
2022-09-18T16:40:17.675Z,57.42
2022-09-18T16:43:19.801Z,56.97
2022-09-18T16:46:27.383Z,56.37
2022-09-18T16:49:32.970Z,56.01
2022-09-18T16:52:34.898Z,55.69
2022-09-18T16:55:41.101Z,56.50
2022-09-18T16:58:44.535Z,55.60
2022-09-18T17:02:02.892Z,56.01
2022-09-18T17:05:05.638Z,56.97
2022-09-18T17:08:07.702Z,56.65
2022-09-18T17:11:09.747Z,56.47
2022-09-18T17:14:11.766Z,56.27
2022-09-18T17:17:13.873Z,55.98
2022-09-18T17:20:17.962Z,57.16
2022-09-18T17:23:19.906Z,56.78
2022-09-18T17:26:23.024Z,55.70
2022-09-18T17:29:25.219Z,55.80
2022-09-18T17:32:28.366Z,55.78
2022-09-18T17:35:30.368Z,55.27
2022-09-18T17:38:36.143Z,55.27
2022-09-18T17:41:39.013Z,55.12
2022-09-18T17:44:41.520Z,54.88
2022-09-18T17:47:43.613Z,54.83
2022-09-18T17:50:45.553Z,56.12
2022-09-18T17:53:48.866Z,55.70
2022-09-18T17:56:51.224Z,55.26
2022-09-18T17:59:53.153Z,56.69
2022-09-18T18:02:56.013Z,55.75
2022-09-18T18:05:58.888Z,55.37
2022-09-18T18:09:01.320Z,55.21
2022-09-18T18:12:05.224Z,55.22
2022-09-18T18:15:07.773Z,55.65
2022-09-18T18:18:09.753Z,55.67
2022-09-18T18:21:11.729Z,55.35
2022-09-18T18:24:16.945Z,55.90
2022-09-18T18:27:21.160Z,55.88
2022-09-18T18:30:24.209Z,55.94
2022-09-18T18:33:26.086Z,55.95
2022-09-18T18:36:30.817Z,54.67
2022-09-18T18:39:32.716Z,54.91
2022-09-18T18:42:34.693Z,54.97
2022-09-18T18:45:37.558Z,54.89
2022-09-18T18:48:40.951Z,55.18
2022-09-18T18:51:47.767Z,55.13
2022-09-18T18:54:50.276Z,55.52
2022-09-18T18:57:52.722Z,54.77
2022-09-18T19:00:55.565Z,55.55
2022-09-18T19:04:03.126Z,55.78
2022-09-18T19:07:06.408Z,55.00
2022-09-18T19:10:08.832Z,55.39
2022-09-18T19:13:10.795Z,54.78
2022-09-18T19:16:13.023Z,55.68
2022-09-18T19:19:17.079Z,55.08
2022-09-18T19:22:19.213Z,55.17
2022-09-18T19:25:21.203Z,55.13
2022-09-18T19:28:23.581Z,54.82
2022-09-18T19:31:27.704Z,56.40
2022-09-18T19:34:29.639Z,55.94
2022-09-18T19:37:31.570Z,55.89
2022-09-18T19:40:37.092Z,56.05
2022-09-18T19:43:40.157Z,56.77
2022-09-18T19:46:42.148Z,56.57
2022-09-18T19:49:44.276Z,55.79
2022-09-18T19:52:50.739Z,55.86
2022-09-18T19:55:53.272Z,56.21
2022-09-18T19:58:55.258Z,56.28
2022-09-18T20:01:57.561Z,55.88
2022-09-18T20:04:59.994Z,55.80
2022-09-18T20:08:02.215Z,56.64
2022-09-18T20:11:04.676Z,56.59
2022-09-18T20:14:06.713Z,55.70
2022-09-18T20:17:10.036Z,56.46
2022-09-18T20:20:16.315Z,56.48
2022-09-18T20:23:18.668Z,56.22
2022-09-18T20:26:20.614Z,55.28
2022-09-18T20:29:22.628Z,55.08
2022-09-18T20:32:24.753Z,55.97
2022-09-18T20:35:27.038Z,55.17
2022-09-18T20:38:38.495Z,55.06
2022-09-18T20:41:40.718Z,56.66
2022-09-18T20:44:42.742Z,55.04
2022-09-18T20:47:44.795Z,56.01
2022-09-18T20:50:47.170Z,56.09
2022-09-18T20:53:49.160Z,56.15
2022-09-18T20:56:51.104Z,55.50
2022-09-18T20:59:53.845Z,55.00
2022-09-18T21:02:55.874Z,55.50
2022-09-18T21:06:21.060Z,55.02
2022-09-18T21:09:27.489Z,54.61
2022-09-18T21:12:38.313Z,55.60
2022-09-18T21:15:46.111Z,55.00
2022-09-18T21:18:53.532Z,55.26
2022-09-18T21:21:55.526Z,55.90
2022-09-18T21:25:00.496Z,55.39
2022-09-18T21:28:05.988Z,56.21
2022-09-18T21:31:11.971Z,54.99
2022-09-18T21:34:26.698Z,54.97
2022-09-18T21:37:28.792Z,54.90
2022-09-18T21:40:31.889Z,55.10
2022-09-18T21:43:34.393Z,55.30
2022-09-18T21:46:38.497Z,55.62
2022-09-18T21:49:40.617Z,54.33
2022-09-18T21:52:45.724Z,55.01
2022-09-18T21:55:47.840Z,55.72
2022-09-18T21:58:50.284Z,54.31
2022-09-18T22:01:55.320Z,54.64
2022-09-18T22:04:57.980Z,55.61
2022-09-18T22:07:59.967Z,54.27
2022-09-18T22:11:03.541Z,55.17
2022-09-18T22:14:10.507Z,55.56
2022-09-18T22:17:12.524Z,54.30
2022-09-18T22:20:14.604Z,54.43
2022-09-18T22:23:16.598Z,54.80
2022-09-18T22:26:20.389Z,54.42
2022-09-18T22:29:25.332Z,54.74
2022-09-18T22:32:27.314Z,55.28
2022-09-18T22:35:29.260Z,54.91
2022-09-18T22:38:31.709Z,55.46
2022-09-18T22:41:37.283Z,53.88
2022-09-18T22:44:39.218Z,54.25
2022-09-18T22:47:41.608Z,54.61
2022-09-18T22:50:44.211Z,55.22
2022-09-18T22:53:51.627Z,54.56
2022-09-18T22:56:55.270Z,54.49
2022-09-18T22:59:57.265Z,54.28
2022-09-18T23:02:59.155Z,54.80
2022-09-18T23:06:01.759Z,54.16
2022-09-18T23:09:04.767Z,53.63
2022-09-18T23:12:07.103Z,53.97
2022-09-18T23:15:09.477Z,53.58
2022-09-18T23:18:11.923Z,54.71
2022-09-18T23:21:14.049Z,53.46
2022-09-18T23:24:16.730Z,53.74
2022-09-18T23:27:18.623Z,53.63
2022-09-18T23:30:21.276Z,53.48
2022-09-18T23:33:23.304Z,54.10
2022-09-18T23:36:31.607Z,53.62
2022-09-18T23:39:34.484Z,54.40
2022-09-18T23:42:36.806Z,53.43
2022-09-18T23:45:38.701Z,53.30
2022-09-18T23:48:41.147Z,54.33
2022-09-18T23:51:48.443Z,53.58
2022-09-18T23:54:50.403Z,53.75
2022-09-18T23:57:52.377Z,54.67
